Time;durP1;ratioP1;P1;durP2;ratioP2;P2;SDS_P1;SDS_P2;PMS_P1;PMS_P2;Temp;Humidity;BMP_temperature;BMP_pressure;BME280_temperature;BME280_humidity;BME280_pressure;Samples;Min_cycle;Max_cycle;Signal;HPM_P1;HPM_P2
2023/04/13 00:01:09;;;;;;;8.52;3.83;;;;;;;5.52;70.41;98741.91;10556021;28;20071;-76
2023/04/13 00:06:14;;;;;;;4.80;3.63;;;;;;;5.69;69.27;98724.47;10544067;28;20032;-78
2023/04/13 00:11:16;;;;;;;4.45;2.85;;;;;;;5.41;69.86;98720.69;10565825;28;20478;-77
2023/04/13 00:16:20;;;;;;;5.72;2.60;;;;;;;5.57;68.97;98713.06;10535679;28;20491;-77
2023/04/13 00:21:24;;;;;;;7.35;2.95;;;;;;;5.64;68.87;98702.72;10552537;28;20410;-77
2023/04/13 00:26:27;;;;;;;4.45;3.10;;;;;;;5.58;68.76;98700.59;10528059;28;20064;-77
2023/04/13 00:31:30;;;;;;;3.80;2.53;;;;;;;5.20;69.47;98702.91;10546107;28;20051;-77
2023/04/13 00:36:34;;;;;;;4.63;2.40;;;;;;;5.48;68.46;98704.03;10535870;28;20132;-77
2023/04/13 00:41:37;;;;;;;5.65;2.90;;;;;;;5.65;68.05;98681.28;10530662;28;20064;-77
2023/04/13 00:46:41;;;;;;;6.18;2.47;;;;;;;5.42;68.37;98687.75;10530642;28;20052;-77
2023/04/13 00:51:46;;;;;;;4.57;2.53;;;;;;;5.57;67.93;98675.78;10540651;28;20062;-76
2023/04/13 00:56:53;;;;;;;5.80;2.10;;;;;;;5.42;68.06;98671.78;10548089;28;20045;-76
2023/04/13 01:01:56;;;;;;;3.40;1.80;;;;;;;5.52;67.77;98662.03;10546538;28;20089;-76
2023/04/13 01:07:08;;;;;;;8.75;4.05;;;;;;;5.53;67.41;98666.34;10531860;28;20571;-77
2023/04/13 01:12:17;;;;;;;9.63;1.90;;;;;;;5.46;67.75;98657.25;10521154;28;20040;-76
2023/04/13 01:17:24;;;;;;;1.58;1.38;;;;;;;5.42;67.74;98653.97;10530874;28;20032;-75
2023/04/13 01:22:32;;;;;;;3.03;1.70;;;;;;;5.36;67.98;98643.03;10523332;28;20044;-76
2023/04/13 01:27:45;;;;;;;1.80;1.70;;;;;;;5.27;67.99;98644.69;10521113;28;20048;-76
2023/04/13 01:32:50;;;;;;;2.60;1.63;;;;;;;5.38;67.78;98644.59;10532426;28;20036;-77
2023/04/13 01:37:53;;;;;;;1.50;1.35;;;;;;;5.43;67.74;98634.38;10524822;28;20474;-77
2023/04/13 01:43:01;;;;;;;3.63;1.48;;;;;;;5.35;67.96;98636.00;10532089;28;20462;-77
2023/04/13 01:48:17;;;;;;;3.50;1.75;;;;;;;5.38;67.70;98627.78;10528948;28;20060;-76
2023/04/13 01:53:52;;;;;;;2.60;1.50;;;;;;;5.46;67.49;98631.44;10511646;28;20102;-77
2023/04/13 01:58:58;;;;;;;2.22;1.60;;;;;;;5.58;67.03;98628.69;10521136;28;20071;-77
2023/04/13 02:04:04;;;;;;;2.78;1.45;;;;;;;5.58;66.71;98623.34;10536678;28;20036;-77
2023/04/13 02:09:07;;;;;;;4.70;1.20;;;;;;;5.54;66.82;98628.13;10534386;28;20131;-76
2023/04/13 02:14:12;;;;;;;3.15;1.27;;;;;;;5.56;66.45;98631.47;10534879;28;20097;-76
2023/04/13 02:19:15;;;;;;;2.60;1.05;;;;;;;5.72;66.03;98626.47;10539477;28;20036;-78
2023/04/13 02:24:18;;;;;;;1.13;0.80;;;;;;;5.70;65.49;98625.78;10538838;28;20109;-76
2023/04/13 02:29:22;;;;;;;2.30;1.00;;;;;;;5.86;65.12;98643.88;10539024;28;20075;-77
2023/04/13 02:34:26;;;;;;;2.40;0.80;;;;;;;5.78;66.63;98645.56;10537654;28;20043;-76
2023/04/13 02:39:29;;;;;;;4.70;1.25;;;;;;;5.54;69.15;98640.56;10533448;28;20045;-77
2023/04/13 02:44:35;;;;;;;1.35;0.90;;;;;;;5.26;71.61;98632.31;10526517;28;20059;-77
2023/04/13 02:49:38;;;;;;;1.17;0.65;;;;;;;5.53;71.37;98622.91;10527300;28;20070;-76
2023/04/13 02:54:53;;;;;;;1.65;0.50;;;;;;;5.57;70.58;98626.97;10530465;28;20048;-77
2023/04/13 03:00:00;;;;;;;6.25;0.90;;;;;;;5.73;69.97;98619.31;10531223;28;20142;-78
2023/04/13 03:05:16;;;;;;;3.28;1.00;;;;;;;5.84;69.80;98624.56;10536040;28;20044;-77
2023/04/13 03:10:20;;;;;;;3.53;1.20;;;;;;;5.80;70.34;98623.13;10561567;22;20051;-80
2023/04/13 03:15:25;;;;;;;1.13;0.95;;;;;;;5.75;70.95;98622.69;10565143;27;20044;-79
2023/04/13 03:20:28;;;;;;;2.63;0.90;;;;;;;5.83;71.52;98619.34;10564718;27;20048;-79
2023/04/13 03:25:35;;;;;;;3.53;0.70;;;;;;;5.66;71.09;98618.19;10555471;28;20051;-79
2023/04/13 03:30:40;;;;;;;1.63;0.70;;;;;;;5.82;70.33;98615.84;10527849;28;20054;-79
2023/04/13 03:35:43;;;;;;;3.80;1.17;;;;;;;6.04;70.48;98608.59;10527656;28;20108;-78
2023/04/13 03:40:55;;;;;;;2.75;1.00;;;;;;;6.02;68.89;98622.03;10540876;28;20048;-80
2023/04/13 03:46:02;;;;;;;2.92;0.73;;;;;;;6.04;68.79;98616.59;10548956;27;20048;-79
2023/04/13 03:51:06;;;;;;;2.15;0.40;;;;;;;6.12;67.52;98624.72;10547099;28;20401;-79
2023/04/13 03:56:22;;;;;;;5.03;0.60;;;;;;;6.21;67.10;98612.38;10531253;28;20044;-78
2023/04/13 04:01:27;;;;;;;1.30;0.77;;;;;;;6.34;66.64;98618.28;10548785;28;20043;-80
2023/04/13 04:06:31;;;;;;;1.65;0.57;;;;;;;6.26;66.40;98615.47;10578680;28;20081;-78
2023/04/13 04:11:54;;;;;;;3.00;0.82;;;;;;;6.44;65.44;98615.59;10583262;28;20116;-77
2023/04/13 04:17:09;;;;;;;1.63;0.30;;;;;;;6.34;64.80;98607.63;10568540;28;20103;-78
2023/04/13 04:22:12;;;;;;;2.58;0.70;;;;;;;6.27;64.71;98615.31;10557900;28;20055;-78
2023/04/13 04:27:17;;;;;;;2.17;0.38;;;;;;;6.36;64.11;98609.16;10563786;28;20051;-78
2023/04/13 04:32:24;;;;;;;5.03;0.57;;;;;;;6.26;64.25;98621.66;10582467;28;20063;-78
2023/04/13 04:37:29;;;;;;;2.20;0.47;;;;;;;6.46;63.83;98621.66;10560646;28;20101;-78
2023/04/13 04:42:37;;;;;;;2.28;0.55;;;;;;;6.53;63.85;98614.78;10575079;28;20036;-77
2023/04/13 04:47:49;;;;;;;1.98;0.40;;;;;;;6.33;64.30;98630.75;10555526;28;20051;-78
2023/04/13 04:52:55;;;;;;;1.20;0.52;;;;;;;6.56;63.19;98626.00;10561471;28;20036;-78
2023/04/13 04:58:01;;;;;;;2.28;0.38;;;;;;;6.50;63.65;98647.03;10570160;28;20059;-78
2023/04/13 05:03:07;;;;;;;0.65;0.40;;;;;;;6.57;63.46;98646.34;10576349;28;20101;-78
2023/04/13 05:08:14;;;;;;;4.80;0.70;;;;;;;6.80;63.47;98654.03;10566305;28;20043;-78
2023/04/13 05:13:21;;;;;;;1.05;0.32;;;;;;;6.52;64.58;98655.75;10573371;28;20054;-79
2023/04/13 05:18:49;;;;;;;0.43;0.20;;;;;;;6.16;66.76;98677.63;10565662;28;20055;-78
2023/04/13 05:24:07;;;;;;;1.95;0.50;;;;;;;6.21;68.61;98681.72;10569904;28;20046;-79
2023/04/13 05:29:11;;;;;;;1.80;0.63;;;;;;;6.17;69.90;98681.13;10562631;28;20542;-78
2023/04/13 05:34:19;;;;;;;4.70;0.40;;;;;;;6.33;69.11;98694.75;10567904;28;20496;-78
2023/04/13 05:39:36;;;;;;;0.40;0.22;;;;;;;5.81;70.29;98711.88;10599959;27;20072;-78
2023/04/13 05:44:40;;;;;;;2.45;0.60;;;;;;;6.08;70.32;98708.59;10576922;28;20051;-79
2023/04/13 05:49:45;;;;;;;2.17;0.85;;;;;;;6.09;70.18;98720.97;10587156;28;20089;-78
2023/04/13 05:54:49;;;;;;;3.03;1.02;;;;;;;6.36;70.12;98728.31;10583645;28;20097;-80
2023/04/13 05:59:55;;;;;;;3.33;1.10;;;;;;;6.39;69.88;98733.41;10566353;28;20039;-79
2023/04/13 06:05:17;;;;;;;3.42;0.50;;;;;;;6.25;69.41;98745.25;10577764;28;20039;-79
2023/04/13 06:10:20;;;;;;;2.15;0.50;;;;;;;6.25;69.39;98752.44;10572401;28;20055;-79
2023/04/13 06:15:23;;;;;;;1.55;0.82;;;;;;;6.44;68.31;98746.28;10566875;28;20044;-78
2023/04/13 06:20:27;;;;;;;2.65;0.65;;;;;;;6.37;67.71;98760.19;10565744;28;20074;-80
2023/04/13 06:25:31;;;;;;;2.67;0.20;;;;;;;6.56;66.44;98767.38;10560909;28;20044;-79
2023/04/13 06:30:36;;;;;;;1.88;0.50;;;;;;;6.48;67.40;98759.22;10557271;28;20097;-81
2023/04/13 06:35:44;;;;;;;0.55;0.35;;;;;;;6.05;68.41;98778.19;10571338;28;20060;-80
2023/04/13 06:40:48;;;;;;;0.57;0.30;;;;;;;6.52;67.08;98776.63;10568569;28;20044;-79
2023/04/13 06:45:58;;;;;;;1.90;0.50;;;;;;;6.35;67.60;98799.47;10563089;28;20082;-78
2023/04/13 06:51:06;;;;;;;0.43;0.30;;;;;;;6.51;67.36;98792.78;10585868;28;20102;-77
2023/04/13 06:56:10;;;;;;;4.03;0.70;;;;;;;6.34;69.43;98808.47;10582019;28;20043;-78
2023/04/13 07:01:14;;;;;;;1.50;0.80;;;;;;;6.17;69.60;98814.41;10568915;28;20036;-78
2023/04/13 07:06:21;;;;;;;4.50;0.68;;;;;;;6.43;69.29;98838.81;10572292;28;20514;-78
2023/04/13 07:11:26;;;;;;;1.83;0.75;;;;;;;6.76;69.65;98826.13;10567981;28;20065;-78
2023/04/13 07:16:29;;;;;;;5.07;1.38;;;;;;;6.42;71.46;98825.59;10540061;28;20079;-78
2023/04/13 07:21:33;;;;;;;2.67;0.85;;;;;;;6.42;73.01;98822.94;10485410;28;20584;-78
2023/04/13 07:26:39;;;;;;;1.23;0.90;;;;;;;6.57;72.24;98832.25;10500635;27;20225;-79
2023/04/13 07:31:43;;;;;;;1.27;1.08;;;;;;;6.37;72.03;98820.69;10529337;27;20040;-77
2023/04/13 07:36:48;;;;;;;2.08;1.10;;;;;;;6.76;70.54;98834.13;10531388;27;20051;-78
2023/04/13 07:41:55;;;;;;;3.65;1.05;;;;;;;6.33;70.59;98862.75;10531915;27;20075;-78
2023/04/13 07:47:13;;;;;;;1.95;0.77;;;;;;;6.08;73.24;98874.72;10521628;28;20611;-78
2023/04/13 07:52:20;;;;;;;1.50;0.90;;;;;;;5.71;76.02;98882.38;10523848;27;20058;-80
2023/04/13 07:57:24;;;;;;;2.95;1.27;;;;;;;5.52;77.49;98885.75;10537618;27;20051;-79
2023/04/13 08:02:32;;;;;;;2.45;2.03;;;;;;;5.18;79.05;98907.16;10546428;27;20068;-79
2023/04/13 08:07:37;;;;;;;2.42;2.05;;;;;;;5.47;79.98;98920.72;10527235;27;20108;-79
2023/04/13 08:12:42;;;;;;;2.47;2.28;;;;;;;5.48;81.21;98911.75;10538207;27;20040;-78
2023/04/13 08:17:47;;;;;;;5.97;3.60;;;;;;;6.54;78.82;98907.22;10536467;28;20048;-78
2023/04/13 08:22:53;;;;;;;4.25;2.72;;;;;;;7.18;76.32;98896.16;10530172;27;21206;-79
2023/04/13 08:27:56;;;;;;;2.58;2.00;;;;;;;7.67;68.94;98914.88;10524810;27;20049;-78
2023/04/13 08:32:59;;;;;;;4.75;2.30;;;;;;;9.30;65.54;98918.97;10503896;27;20044;-77
2023/04/13 08:38:05;;;;;;;7.22;2.67;;;;;;;8.96;63.20;98924.09;10510254;28;20054;-78
2023/04/13 08:43:09;;;;;;;2.70;2.50;;;;;;;9.02;62.68;98948.47;10525908;28;20070;-79
2023/04/13 08:48:13;;;;;;;5.15;2.55;;;;;;;8.80;61.69;98946.16;10501669;28;20133;-79
2023/04/13 08:53:20;;;;;;;2.80;1.33;;;;;;;8.13;63.43;98946.22;10521863;28;20587;-80
2023/04/13 08:58:26;;;;;;;2.17;2.00;;;;;;;8.07;63.72;98943.28;10529402;28;20058;-79
2023/04/13 09:03:34;;;;;;;2.70;2.30;;;;;;;8.58;64.49;98952.72;10515008;28;20051;-79
2023/04/13 09:08:43;;;;;;;3.28;2.50;;;;;;;9.34;61.76;98952.50;10523038;27;20111;-78
2023/04/13 09:13:49;;;;;;;3.83;2.03;;;;;;;10.01;59.35;98963.72;10539095;27;20039;-79
2023/04/13 09:18:54;;;;;;;4.22;1.10;;;;;;;9.86;55.63;98955.38;10517585;27;20040;-79
2023/04/13 09:23:59;;;;;;;1.42;1.05;;;;;;;10.56;53.29;98963.44;10514270;27;20051;-78
2023/04/13 09:29:04;;;;;;;0.82;0.60;;;;;;;10.02;54.56;98970.75;10513305;27;20188;-78
2023/04/13 09:34:07;;;;;;;2.28;0.90;;;;;;;10.42;52.80;98972.03;10510139;28;20101;-79
2023/04/13 09:39:13;;;;;;;1.67;0.98;;;;;;;9.55;52.98;98999.63;10488397;28;20149;-78
2023/04/13 09:44:19;;;;;;;2.28;1.15;;;;;;;9.47;55.04;99006.56;10491112;27;20756;-78
2023/04/13 09:49:22;;;;;;;0.82;0.55;;;;;;;10.11;52.31;99001.19;10520401;28;20054;-79
2023/04/13 09:54:27;;;;;;;1.35;1.10;;;;;;;10.35;50.79;99005.91;10544915;27;20048;-79
2023/04/13 09:59:32;;;;;;;3.97;0.80;;;;;;;9.34;52.40;99021.31;10525317;27;20059;-79
2023/04/13 10:04:35;;;;;;;3.70;0.90;;;;;;;9.50;52.16;99021.50;10520430;27;20056;-78
2023/04/13 10:09:40;;;;;;;2.35;0.60;;;;;;;9.36;53.95;99027.38;10526848;27;20670;-78
2023/04/13 10:14:47;;;;;;;5.07;1.02;;;;;;;8.44;55.97;99020.06;10537397;27;20064;-80
2023/04/13 10:19:53;;;;;;;2.47;1.00;;;;;;;8.72;55.96;99045.09;10499554;28;20052;-79
2023/04/13 10:24:57;;;;;;;2.63;1.25;;;;;;;9.33;56.17;99036.56;10526633;27;20080;-79
2023/04/13 10:30:02;;;;;;;2.30;0.80;;;;;;;9.78;52.85;99065.22;10528915;27;20119;-78
2023/04/13 10:35:09;;;;;;;2.35;1.10;;;;;;;9.22;53.75;99072.44;10525125;27;20517;-78
2023/04/13 10:40:15;;;;;;;1.17;1.08;;;;;;;8.56;57.02;99072.50;10543088;27;20139;-80
2023/04/13 10:45:20;;;;;;;2.22;1.35;;;;;;;7.92;58.24;99117.47;10531034;27;20122;-80
2023/04/13 10:50:26;;;;;;;4.88;1.90;;;;;;;8.53;58.32;99094.16;10537288;27;20044;-79
2023/04/13 10:55:31;;;;;;;4.00;2.25;;;;;;;8.82;57.39;99108.34;10530797;27;20078;-81
2023/04/13 11:00:34;;;;;;;2.70;1.40;;;;;;;8.82;57.39;99096.81;10494262;28;20097;-78
2023/04/13 11:05:57;;;;;;;3.67;2.00;;;;;;;9.09;57.61;99132.69;10540595;27;20514;-79
2023/04/13 11:11:01;;;;;;;;;;;;;;;9.88;55.48;99133.06;10535242;27;20085;-79
2023/04/13 11:16:05;;;;;;;3.67;1.67;;;;;;;9.70;54.68;99126.78;10524929;27;19930;-79
2023/04/13 11:21:14;;;;;;;3.13;1.73;;;;;;;10.57;53.34;99118.16;10529169;27;20093;-78
2023/04/13 11:26:18;;;;;;;4.78;1.42;;;;;;;10.40;53.16;99137.81;10499507;28;20044;-80
2023/04/13 11:31:21;;;;;;;1.60;1.50;;;;;;;12.44;49.03;99115.69;10503819;27;20053;-78
2023/04/13 11:36:25;;;;;;;4.20;2.05;;;;;;;11.58;50.79;99141.00;10509479;27;20160;-77
2023/04/13 11:41:31;;;;;;;3.90;1.60;;;;;;;11.18;51.56;99137.09;10538653;27;20062;-78
2023/04/13 11:46:34;;;;;;;3.97;2.13;;;;;;;10.99;51.65;99156.91;10536868;27;20452;-78
2023/04/13 11:51:37;;;;;;;1.90;1.80;;;;;;;10.48;52.65;99147.78;10526314;27;20140;-78
2023/04/13 11:56:42;;;;;;;2.97;2.00;;;;;;;9.21;55.30;99164.50;10529751;27;20043;-78
2023/04/13 12:01:49;;;;;;;3.28;1.17;;;;;;;9.04;55.66;99166.09;10518174;28;20122;-79
2023/04/13 12:07:10;;;;;;;1.77;1.67;;;;;;;9.00;56.59;99187.97;10525818;27;20135;-79
2023/04/13 12:12:18;;;;;;;8.40;2.65;;;;;;;9.69;56.15;99146.56;10530364;27;20055;-79
2023/04/13 12:17:30;;;;;;;2.85;2.30;;;;;;;10.34;53.99;99158.06;10512202;28;20043;-79
2023/04/13 12:22:45;;;;;;;3.38;1.98;;;;;;;10.54;52.71;99166.78;10521710;27;20067;-79
2023/04/13 12:27:53;;;;;;;2.28;1.90;;;;;;;10.53;52.64;99164.25;10526316;27;20052;-79
2023/04/13 12:32:56;;;;;;;3.67;2.03;;;;;;;9.75;54.74;99172.78;10522423;27;20050;-79
2023/04/13 12:37:59;;;;;;;5.10;2.10;;;;;;;10.41;53.70;99189.66;10558618;27;20054;-80
2023/04/13 12:43:03;;;;;;;4.13;2.40;;;;;;;11.75;50.96;99166.97;10541681;27;20917;-80
2023/04/13 12:48:07;;;;;;;3.22;2.42;;;;;;;13.11;46.70;99161.31;10515820;27;20683;-80
2023/04/13 12:53:10;;;;;;;3.83;1.98;;;;;;;10.87;49.68;99177.81;10526798;27;20062;-79
2023/04/13 12:58:15;;;;;;;2.83;2.35;;;;;;;10.86;51.03;99188.72;10527605;27;20748;-80
2023/04/13 13:03:18;;;;;;;4.03;2.30;;;;;;;10.04;52.71;99204.84;10536714;27;20068;-79
2023/04/13 13:08:21;;;;;;;5.43;2.72;;;;;;;9.88;55.23;99218.91;10508108;27;20410;-79
2023/04/13 13:13:25;;;;;;;6.70;4.55;;;;;;;8.91;64.65;99229.81;10519070;27;20047;-79
2023/04/13 13:18:28;;;;;;;8.90;4.07;;;;;;;8.93;63.48;99235.91;10521516;27;20112;-80
2023/04/13 13:23:48;;;;;;;6.13;4.30;;;;;;;8.88;65.54;99231.94;10523188;27;20059;-80
2023/04/13 13:28:52;;;;;;;9.43;4.75;;;;;;;10.15;65.05;99225.28;10533969;27;20044;-80
2023/04/13 13:33:55;;;;;;;5.20;3.20;;;;;;;11.95;57.17;99246.41;10537749;27;20054;-80
2023/04/13 13:38:59;;;;;;;4.30;3.10;;;;;;;12.37;54.77;99228.63;10524241;27;20063;-80
2023/04/13 13:44:03;;;;;;;9.35;3.03;;;;;;;13.53;52.83;99227.72;10529417;27;20134;-80
2023/04/13 13:49:06;;;;;;;4.65;2.20;;;;;;;13.35;50.01;99231.38;10522887;27;21518;-80
2023/04/13 13:54:29;;;;;;;5.75;2.60;;;;;;;12.99;50.42;99236.28;10534238;27;20055;-80
2023/04/13 13:59:33;;;;;;;6.63;2.40;;;;;;;12.96;48.74;99236.63;10533569;27;20057;-80
2023/04/13 14:04:36;;;;;;;5.10;2.53;;;;;;;12.88;48.38;99239.31;10509656;27;20055;-80
2023/04/13 14:09:39;;;;;;;5.40;2.97;;;;;;;11.69;50.35;99259.06;10519367;27;20124;-80
2023/04/13 14:14:44;;;;;;;9.38;2.35;;;;;;;11.81;48.46;99270.41;10522672;27;20113;-80
2023/04/13 14:19:46;;;;;;;7.65;2.55;;;;;;;11.01;50.71;99263.25;10514013;27;20133;-80
2023/04/13 14:24:50;;;;;;;5.68;2.15;;;;;;;12.05;50.40;99269.69;10530071;27;20130;-80
2023/04/13 14:29:55;;;;;;;6.65;2.50;;;;;;;11.48;50.83;99272.88;10530718;27;20082;-80
2023/04/13 14:34:59;;;;;;;7.30;2.05;;;;;;;10.87;51.35;99277.22;10519218;28;20062;-79
2023/04/13 14:40:07;;;;;;;11.00;3.45;;;;;;;10.76;50.10;99272.06;10528585;27;20044;-80
2023/04/13 14:45:12;;;;;;;6.20;2.88;;;;;;;11.43;51.07;99281.41;10518157;28;20036;-80
2023/04/13 14:50:15;;;;;;;9.07;2.10;;;;;;;11.09;49.68;99291.19;10521008;28;20051;-80
2023/04/13 14:55:18;;;;;;;4.50;2.65;;;;;;;11.10;51.32;99292.88;10520762;27;20388;-79
2023/04/13 15:00:37;;;;;;;6.18;2.42;;;;;;;11.41;50.36;99302.25;10543418;27;20064;-78
2023/04/13 15:05:40;;;;;;;8.68;2.70;;;;;;;10.88;50.64;99304.91;10536143;27;20048;-79
2023/04/13 15:10:43;;;;;;;11.35;3.00;;;;;;;11.28;50.58;99309.88;10524264;27;20108;-79
2023/04/13 15:15:48;;;;;;;6.55;2.83;;;;;;;10.59;50.85;99328.28;10533918;27;20208;-79
2023/04/13 15:20:51;;;;;;;6.80;2.80;;;;;;;10.59;50.39;99328.28;10532450;27;20167;-78
2023/04/13 15:25:54;;;;;;;11.85;3.33;;;;;;;11.09;50.45;99326.97;10521712;27;20139;-80
2023/04/13 15:30:59;;;;;;;6.85;2.70;;;;;;;11.31;49.40;99316.78;10525533;27;20043;-79
2023/04/13 15:36:02;;;;;;;6.43;2.30;;;;;;;11.51;49.22;99331.72;10504171;27;20498;-78
2023/04/13 15:41:08;;;;;;;4.25;2.03;;;;;;;11.28;47.71;99334.06;10520729;27;20545;-79
2023/04/13 15:46:12;;;;;;;4.57;2.22;;;;;;;12.03;47.73;99358.66;10526805;27;20057;-79
2023/04/13 15:51:15;;;;;;;5.75;2.80;;;;;;;13.03;46.03;99350.88;10500499;28;20056;-79
2023/04/13 15:56:18;;;;;;;6.57;2.63;;;;;;;13.02;46.16;99341.91;10506195;28;20056;-79
2023/04/13 16:01:22;;;;;;;7.20;2.58;;;;;;;12.41;45.71;99363.78;10503338;28;20055;-79
2023/04/13 16:06:26;;;;;;;5.45;1.98;;;;;;;13.78;44.81;99377.75;10504118;27;20417;-79
2023/04/13 16:11:29;;;;;;;6.80;2.47;;;;;;;13.18;44.00;99383.41;10506617;28;20935;-79
2023/04/13 16:16:42;;;;;;;4.07;2.17;;;;;;;13.47;43.08;99377.59;10546266;27;20065;-79
2023/04/13 16:21:49;;;;;;;7.72;2.05;;;;;;;12.64;44.28;99393.69;10514920;27;20047;-80
2023/04/13 16:26:52;;;;;;;6.95;2.50;;;;;;;12.88;44.16;99407.25;10515455;27;20242;-80
2023/04/13 16:31:56;;;;;;;7.63;2.95;;;;;;;12.81;44.51;99415.16;10538804;27;20055;-80
2023/04/13 16:36:59;;;;;;;5.88;2.10;;;;;;;13.97;42.61;99417.06;10537092;27;20176;-79
2023/04/13 16:42:03;;;;;;;3.17;2.03;;;;;;;13.42;42.36;99420.41;10525639;27;20418;-82
2023/04/13 16:47:07;;;;;;;9.15;3.05;;;;;;;13.43;41.86;99424.78;10536441;27;20175;-81
2023/04/13 16:52:10;;;;;;;4.65;2.35;;;;;;;12.85;44.55;99433.69;10516345;27;20075;-81
2023/04/13 16:57:13;;;;;;;8.48;2.30;;;;;;;11.83;45.13;99441.44;10492370;28;20063;-81
2023/04/13 17:02:17;;;;;;;7.63;2.55;;;;;;;12.03;45.24;99452.03;10517545;27;21520;-81
2023/04/13 17:07:33;;;;;;;7.53;2.70;;;;;;;12.11;45.20;99454.78;10514240;27;20048;-81
2023/04/13 17:12:36;;;;;;;8.20;2.65;;;;;;;12.14;45.83;99454.47;10517339;27;20047;-81
2023/04/13 17:17:40;;;;;;;7.28;2.50;;;;;;;12.70;43.86;99465.78;10501627;27;20632;-81
2023/04/13 17:22:44;;;;;;;7.57;3.22;;;;;;;12.51;43.88;99473.09;10496114;27;20054;-81
2023/04/13 17:27:46;;;;;;;7.05;3.15;;;;;;;12.74;44.75;99477.94;10511511;27;20112;-81
2023/04/13 17:32:51;;;;;;;10.23;3.05;;;;;;;12.63;43.91;99486.28;10546130;27;20050;-81
2023/04/13 17:37:54;;;;;;;8.63;3.00;;;;;;;12.17;44.75;99486.44;10520547;27;20047;-81
2023/04/13 17:42:57;;;;;;;4.05;3.13;;;;;;;12.09;45.02;99491.75;10527048;27;20048;-81
2023/04/13 17:48:01;;;;;;;5.55;3.22;;;;;;;11.76;45.38;99498.72;10539840;27;20126;-80
2023/04/13 17:53:04;;;;;;;6.65;3.05;;;;;;;11.44;45.47;99500.09;10540283;27;20056;-80
2023/04/13 17:58:09;;;;;;;8.05;3.20;;;;;;;11.34;45.72;99510.03;10528132;27;20051;-79
2023/04/13 18:03:13;;;;;;;8.45;2.92;;;;;;;11.21;45.98;99507.69;10525361;28;20127;-80
2023/04/13 18:08:16;;;;;;;8.77;3.05;;;;;;;11.05;46.22;99513.69;10527178;27;20056;-81
2023/04/13 18:13:19;;;;;;;7.90;3.30;;;;;;;10.84;47.07;99504.03;10529760;28;20131;-81
2023/04/13 18:18:23;;;;;;;7.35;3.00;;;;;;;10.69;48.04;99505.47;10496945;28;20056;-81
2023/04/13 18:23:26;;;;;;;6.80;3.15;;;;;;;10.51;49.02;99501.88;10522196;28;20066;-81
2023/04/13 18:28:29;;;;;;;8.82;3.08;;;;;;;10.33;48.12;99515.19;10525799;28;20619;-81
2023/04/13 18:47:07;;;;;;;11.25;3.45;;;;;;;9.89;50.77;99560.41;10538590;27;20490;-81
2023/04/13 18:52:10;;;;;;;11.65;4.28;;;;;;;9.78;50.91;99569.41;10512506;28;20134;-82
2023/04/13 18:57:13;;;;;;;;;;;;;;;9.68;51.11;99584.59;10526201;27;20063;-81
2023/04/13 19:02:17;;;;;;;10.48;3.97;;;;;;;9.60;51.32;99589.81;10505404;28;19924;-81
2023/04/13 19:07:20;;;;;;;12.45;4.80;;;;;;;9.55;51.85;99592.09;10513626;28;20047;-81
2023/04/13 19:12:22;;;;;;;;;;;;;;;9.50;52.26;99608.56;10524498;27;20592;-81
2023/04/13 19:17:27;;;;;;;10.10;4.03;;;;;;;9.45;52.48;99613.50;10512905;28;19931;-81
2023/04/13 19:22:30;;;;;;;7.95;4.30;;;;;;;9.41;52.78;99620.97;10514869;27;20055;-80
2023/04/13 19:27:32;;;;;;;7.45;4.20;;;;;;;9.31;52.38;99619.22;10493402;27;20045;-82
2023/04/13 19:32:37;;;;;;;12.73;5.40;;;;;;;9.23;52.98;99625.25;10511484;27;20056;-80
2023/04/13 19:37:40;;;;;;;11.32;4.93;;;;;;;9.14;53.45;99631.41;10527596;27;20052;-81
2023/04/13 19:42:45;;;;;;;9.30;4.68;;;;;;;9.13;53.46;99630.53;10531859;27;20039;-80
2023/04/13 19:47:50;;;;;;;8.52;4.47;;;;;;;9.06;53.94;99643.63;10512740;27;20060;-82
2023/04/13 19:52:53;;;;;;;12.57;4.57;;;;;;;8.95;53.96;99634.84;10540058;27;20109;-80
2023/04/13 19:57:56;;;;;;;10.45;5.13;;;;;;;8.87;53.90;99646.22;10518598;27;21327;-80
2023/04/13 20:03:02;;;;;;;10.10;5.93;;;;;;;8.86;54.24;99640.97;10530292;27;20108;-81
2023/04/13 20:08:06;;;;;;;12.68;5.88;;;;;;;8.80;54.91;99642.34;10533945;27;20055;-81
2023/04/13 20:13:09;;;;;;;9.10;4.85;;;;;;;8.72;55.04;99637.66;10533536;27;21262;-80
2023/04/13 20:18:13;;;;;;;12.75;6.20;;;;;;;8.61;55.33;99656.44;10525123;27;20131;-81
2023/04/13 20:23:16;;;;;;;10.35;6.57;;;;;;;8.50;55.29;99659.19;10502215;27;20470;-80
2023/04/13 20:28:20;;;;;;;13.55;6.22;;;;;;;8.36;55.68;99660.31;10533537;27;20113;-81
2023/04/13 20:33:24;;;;;;;12.65;5.75;;;;;;;8.14;56.56;99677.28;10521816;27;20595;-81
2023/04/13 20:38:28;;;;;;;16.02;6.80;;;;;;;8.08;56.99;99678.63;10528069;27;20052;-80
2023/04/13 20:43:31;;;;;;;16.20;8.50;;;;;;;8.17;57.00;99672.53;10547134;27;20317;-81
2023/04/13 20:48:37;;;;;;;17.23;10.25;;;;;;;8.20;56.89;99671.44;10565041;27;20052;-80
2023/04/13 20:53:43;;;;;;;13.00;8.48;;;;;;;8.13;56.91;99659.53;10577529;28;20036;-80
2023/04/13 20:58:47;;;;;;;17.10;7.57;;;;;;;8.13;57.42;99656.88;10560755;28;20040;-80
2023/04/13 21:03:51;;;;;;;18.88;8.65;;;;;;;8.08;57.22;99659.91;10558706;28;20048;-80
2023/04/13 21:08:56;;;;;;;16.52;7.60;;;;;;;7.93;57.71;99650.47;10555761;28;20040;-80
2023/04/13 21:13:59;;;;;;;15.05;8.38;;;;;;;7.89;57.72;99647.19;10569005;28;20051;-80
2023/04/13 21:19:03;;;;;;;15.25;8.48;;;;;;;7.74;58.05;99645.78;10569819;28;20037;-79
2023/04/13 21:24:07;;;;;;;14.45;9.23;;;;;;;7.62;58.79;99649.44;10563957;28;20093;-80
2023/04/13 21:29:09;;;;;;;15.68;8.70;;;;;;;7.48;59.19;99647.84;10551579;28;20564;-79
2023/04/13 21:34:14;;;;;;;14.30;9.05;;;;;;;7.40;59.73;99651.13;10585173;28;20055;-79
2023/04/13 21:39:17;;;;;;;17.08;9.90;;;;;;;7.33;60.03;99655.28;10569746;28;20040;-80
2023/04/13 21:44:19;;;;;;;17.58;10.75;;;;;;;7.27;60.29;99661.97;10567285;28;20051;-81
2023/04/13 21:49:32;;;;;;;19.33;10.43;;;;;;;7.18;60.44;99651.97;10568057;28;20391;-81
2023/04/13 21:54:35;;;;;;;18.13;9.82;;;;;;;7.06;60.75;99658.28;10579089;28;20134;-81
2023/04/13 21:59:38;;;;;;;13.57;9.00;;;;;;;7.00;61.02;99658.78;10568658;28;20043;-80
2023/04/13 22:04:42;;;;;;;25.08;11.60;;;;;;;7.02;61.41;99656.81;10568289;28;20055;-80
2023/04/13 22:09:45;;;;;;;24.38;11.52;;;;;;;7.04;61.60;99666.41;10579646;28;20032;-81
2023/04/13 22:14:48;;;;;;;21.40;9.82;;;;;;;7.04;61.46;99676.25;10573888;28;20467;-81
2023/04/13 22:19:52;;;;;;;19.55;10.73;;;;;;;6.87;61.62;99679.34;10571217;28;20323;-81
2023/04/13 22:24:55;;;;;;;16.85;9.15;;;;;;;6.79;61.92;99671.91;10565413;28;20044;-80
2023/04/13 22:29:57;;;;;;;12.45;8.13;;;;;;;6.74;62.06;99682.09;10567441;28;20517;-81
2023/04/13 22:35:02;;;;;;;19.00;8.77;;;;;;;6.68;62.12;99687.91;10575936;28;20070;-79
2023/04/13 22:40:06;;;;;;;18.95;9.70;;;;;;;6.73;62.13;99688.41;10571739;28;20506;-80
2023/04/13 22:45:09;;;;;;;13.60;8.27;;;;;;;6.69;62.16;99700.28;10567691;28;20031;-80
2023/04/13 22:50:14;;;;;;;14.75;8.57;;;;;;;6.64;62.33;99705.97;10573821;28;20044;-82
2023/04/13 22:55:16;;;;;;;11.30;8.05;;;;;;;6.55;62.34;99709.31;10564693;28;20044;-81
2023/04/13 23:00:20;;;;;;;19.17;8.32;;;;;;;6.52;62.42;99710.41;10571684;28;20146;-82
2023/04/13 23:05:24;;;;;;;18.45;8.98;;;;;;;6.43;62.81;99720.94;10576047;28;20524;-83
2023/04/13 23:10:29;;;;;;;15.05;8.82;;;;;;;6.33;63.05;99729.59;10572090;28;20407;-80
2023/04/13 23:15:32;;;;;;;20.48;9.50;;;;;;;6.35;63.41;99726.81;10579298;28;20048;-80
2023/04/13 23:20:36;;;;;;;13.63;8.52;;;;;;;6.29;63.70;99736.13;10579929;28;20117;-82
2023/04/13 23:25:39;;;;;;;13.30;8.98;;;;;;;6.25;63.62;99731.13;10572947;28;20131;-81
2023/04/13 23:30:42;;;;;;;19.30;9.50;;;;;;;6.20;63.70;99728.81;10580193;28;20070;-79
2023/04/13 23:35:52;;;;;;;14.05;9.45;;;;;;;6.12;63.69;99731.19;10574172;28;20039;-81
2023/04/13 23:40:55;;;;;;;16.45;8.95;;;;;;;6.02;64.29;99736.31;10575889;28;20382;-82
2023/04/13 23:45:58;;;;;;;14.88;8.75;;;;;;;6.02;64.26;99740.81;10570397;28;20047;-81
2023/04/13 23:51:03;;;;;;;13.82;8.85;;;;;;;6.03;64.38;99745.16;10570320;28;20040;-80
2023/04/13 23:56:06;;;;;;;15.75;8.48;;;;;;;5.96;64.20;99736.78;10571408;28;20567;-81
